sensor_id;sensor_type;location;lat;lon;timestamp;pressure;altitude;pressure_sealevel;temperature;humidity
81379;BME280;70830;42.290;-71.354;2023-09-19T00:01:41;99959.78;;;18.15;85.93
81379;BME280;70830;42.290;-71.354;2023-09-19T00:04:09;99952.50;;;18.17;85.97
81379;BME280;70830;42.290;-71.354;2023-09-19T00:06:36;99932.09;;;18.16;85.30
81379;BME280;70830;42.290;-71.354;2023-09-19T00:09:03;99926.03;;;18.14;85.60
81379;BME280;70830;42.290;-71.354;2023-09-19T00:11:29;99925.34;;;18.12;85.56
81379;BME280;70830;42.290;-71.354;2023-09-19T00:13:56;99927.44;;;18.08;86.73
81379;BME280;70830;42.290;-71.354;2023-09-19T00:16:25;99931.91;;;18.08;86.14
81379;BME280;70830;42.290;-71.354;2023-09-19T00:18:51;99918.72;;;18.06;85.82
81379;BME280;70830;42.290;-71.354;2023-09-19T00:21:22;99917.00;;;18.05;86.37
81379;BME280;70830;42.290;-71.354;2023-09-19T00:23:48;99920.66;;;18.04;85.82
81379;BME280;70830;42.290;-71.354;2023-09-19T00:26:14;99915.44;;;18.03;85.95
81379;BME280;70830;42.290;-71.354;2023-09-19T00:28:40;99911.81;;;18.04;86.18
81379;BME280;70830;42.290;-71.354;2023-09-19T00:31:09;99923.44;;;18.03;86.39
81379;BME280;70830;42.290;-71.354;2023-09-19T00:33:35;99923.34;;;18.04;86.32
81379;BME280;70830;42.290;-71.354;2023-09-19T00:36:02;99922.47;;;18.04;85.76
81379;BME280;70830;42.290;-71.354;2023-09-19T00:38:30;99916.03;;;18.06;86.09
81379;BME280;70830;42.290;-71.354;2023-09-19T00:40:57;99910.44;;;18.09;86.30
81379;BME280;70830;42.290;-71.354;2023-09-19T00:43:25;99906.91;;;18.09;86.39
81379;BME280;70830;42.290;-71.354;2023-09-19T00:45:54;99909.31;;;18.12;86.39
81379;BME280;70830;42.290;-71.354;2023-09-19T00:48:21;99913.94;;;18.10;85.98
81379;BME280;70830;42.290;-71.354;2023-09-19T00:50:49;99917.34;;;18.12;85.90
81379;BME280;70830;42.290;-71.354;2023-09-19T00:53:20;99908.47;;;18.11;85.54
81379;BME280;70830;42.290;-71.354;2023-09-19T00:55:47;99912.00;;;18.12;86.24
81379;BME280;70830;42.290;-71.354;2023-09-19T00:58:14;99908.38;;;18.13;86.32
81379;BME280;70830;42.290;-71.354;2023-09-19T01:00:42;99896.69;;;18.14;86.30
81379;BME280;70830;42.290;-71.354;2023-09-19T01:03:10;99892.22;;;18.14;86.16
81379;BME280;70830;42.290;-71.354;2023-09-19T01:05:39;99886.75;;;18.16;86.00
81379;BME280;70830;42.290;-71.354;2023-09-19T01:08:05;99890.41;;;18.15;86.40
81379;BME280;70830;42.290;-71.354;2023-09-19T01:10:33;99883.34;;;18.14;85.72
81379;BME280;70830;42.290;-71.354;2023-09-19T01:13:08;99876.06;;;18.16;85.70
81379;BME280;70830;42.290;-71.354;2023-09-19T01:21:22;99880.31;;;18.18;85.52
81379;BME280;70830;42.290;-71.354;2023-09-19T01:29:41;99867.34;;;18.14;85.72
81379;BME280;70830;42.290;-71.354;2023-09-19T01:32:11;99862.88;;;18.14;85.99
81379;BME280;70830;42.290;-71.354;2023-09-19T01:34:51;99853.16;;;18.13;85.02
81379;BME280;70830;42.290;-71.354;2023-09-19T01:37:20;99854.16;;;18.12;85.21
81379;BME280;70830;42.290;-71.354;2023-09-19T01:39:59;99854.16;;;18.12;85.23
81379;BME280;70830;42.290;-71.354;2023-09-19T01:42:41;99841.66;;;18.13;84.04
81379;BME280;70830;42.290;-71.354;2023-09-19T01:47:49;99848.09;;;18.10;84.65
81379;BME280;70830;42.290;-71.354;2023-09-19T01:50:52;99856.22;;;18.09;84.84
81379;BME280;70830;42.290;-71.354;2023-09-19T01:55:51;99852.59;;;18.10;85.79
81379;BME280;70830;42.290;-71.354;2023-09-19T01:58:36;99843.16;;;18.06;87.96
81379;BME280;70830;42.290;-71.354;2023-09-19T02:01:05;99838.91;;;18.03;88.72
81379;BME280;70830;42.290;-71.354;2023-09-19T02:03:35;99842.84;;;17.99;88.79
81379;BME280;70830;42.290;-71.354;2023-09-19T02:06:02;99835.94;;;17.97;88.56
81379;BME280;70830;42.290;-71.354;2023-09-19T02:08:30;99836.78;;;17.97;88.73
81379;BME280;70830;42.290;-71.354;2023-09-19T02:11:00;99833.50;;;17.94;88.65
81379;BME280;70830;42.290;-71.354;2023-09-19T02:13:26;99834.22;;;17.96;88.43
81379;BME280;70830;42.290;-71.354;2023-09-19T02:15:53;99828.19;;;17.94;88.54
81379;BME280;70830;42.290;-71.354;2023-09-19T02:18:19;99819.47;;;17.92;87.46
81379;BME280;70830;42.290;-71.354;2023-09-19T02:20:45;99834.38;;;17.94;87.85
81379;BME280;70830;42.290;-71.354;2023-09-19T02:23:12;99823.44;;;17.97;87.84
81379;BME280;70830;42.290;-71.354;2023-09-19T02:25:39;99836.66;;;17.99;87.73
81379;BME280;70830;42.290;-71.354;2023-09-19T02:28:06;99830.34;;;18.00;87.53
81379;BME280;70830;42.290;-71.354;2023-09-19T02:30:32;99837.50;;;17.99;87.20
81379;BME280;70830;42.290;-71.354;2023-09-19T02:32:59;99832.28;;;17.98;87.14
81379;BME280;70830;42.290;-71.354;2023-09-19T02:35:28;99824.56;;;17.95;87.35
81379;BME280;70830;42.290;-71.354;2023-09-19T02:37:54;99829.19;;;17.93;86.92
81379;BME280;70830;42.290;-71.354;2023-09-19T02:40:20;99826.03;;;17.88;86.79
81379;BME280;70830;42.290;-71.354;2023-09-19T02:42:49;99821.94;;;17.84;86.72
81379;BME280;70830;42.290;-71.354;2023-09-19T02:45:19;99829.47;;;17.79;86.35
81379;BME280;70830;42.290;-71.354;2023-09-19T02:47:45;99838.72;;;17.75;86.86
81379;BME280;70830;42.290;-71.354;2023-09-19T02:50:12;99833.63;;;17.72;86.95
81379;BME280;70830;42.290;-71.354;2023-09-19T02:52:41;99833.06;;;17.68;86.86
81379;BME280;70830;42.290;-71.354;2023-09-19T02:55:11;99836.97;;;17.64;86.77
81379;BME280;70830;42.290;-71.354;2023-09-19T02:57:40;99841.69;;;17.61;86.39
81379;BME280;70830;42.290;-71.354;2023-09-19T03:00:09;99849.34;;;17.54;86.99
81379;BME280;70830;42.290;-71.354;2023-09-19T03:02:36;99852.34;;;17.49;86.89
81379;BME280;70830;42.290;-71.354;2023-09-19T03:05:04;99853.34;;;17.48;87.27
81379;BME280;70830;42.290;-71.354;2023-09-19T03:07:30;99854.16;;;17.49;87.17
81379;BME280;70830;42.290;-71.354;2023-09-19T03:09:56;99855.03;;;17.49;86.76
81379;BME280;70830;42.290;-71.354;2023-09-19T03:12:22;99865.22;;;17.44;88.03
81379;BME280;70830;42.290;-71.354;2023-09-19T03:14:48;99863.53;;;17.43;86.97
81379;BME280;70830;42.290;-71.354;2023-09-19T03:17:14;99869.81;;;17.42;86.81
81379;BME280;70830;42.290;-71.354;2023-09-19T03:19:40;99864.75;;;17.39;86.93
81379;BME280;70830;42.290;-71.354;2023-09-19T03:22:06;99868.28;;;17.40;86.79
81379;BME280;70830;42.290;-71.354;2023-09-19T03:24:33;99868.53;;;17.37;87.01
81379;BME280;70830;42.290;-71.354;2023-09-19T03:27:01;99889.69;;;17.38;87.20
81379;BME280;70830;42.290;-71.354;2023-09-19T03:29:26;99896.97;;;17.36;86.93
81379;BME280;70830;42.290;-71.354;2023-09-19T03:31:52;99885.75;;;17.33;86.85
81379;BME280;70830;42.290;-71.354;2023-09-19T03:34:20;99892.75;;;17.34;87.24
81379;BME280;70830;42.290;-71.354;2023-09-19T03:36:46;99899.88;;;17.33;87.14
81379;BME280;70830;42.290;-71.354;2023-09-19T03:39:12;99897.50;;;17.30;86.48
81379;BME280;70830;42.290;-71.354;2023-09-19T03:41:41;99904.50;;;17.31;87.07
81379;BME280;70830;42.290;-71.354;2023-09-19T03:44:07;99912.50;;;17.31;86.52
81379;BME280;70830;42.290;-71.354;2023-09-19T03:46:33;99914.31;;;17.31;86.92
81379;BME280;70830;42.290;-71.354;2023-09-19T03:49:01;99908.16;;;17.30;86.42
81379;BME280;70830;42.290;-71.354;2023-09-19T03:51:27;99909.72;;;17.33;86.08
81379;BME280;70830;42.290;-71.354;2023-09-19T03:53:52;99903.91;;;17.28;86.46
81379;BME280;70830;42.290;-71.354;2023-09-19T03:56:18;99894.09;;;17.28;86.22
81379;BME280;70830;42.290;-71.354;2023-09-19T03:58:44;99889.72;;;17.27;86.62
81379;BME280;70830;42.290;-71.354;2023-09-19T04:01:10;99889.72;;;17.27;86.05
81379;BME280;70830;42.290;-71.354;2023-09-19T04:03:36;99873.25;;;17.22;85.86
81379;BME280;70830;42.290;-71.354;2023-09-19T04:06:16;99858.41;;;17.20;85.69
81379;BME280;70830;42.290;-71.354;2023-09-19T04:08:43;99839.84;;;17.18;86.04
81379;BME280;70830;42.290;-71.354;2023-09-19T04:11:10;99822.31;;;17.16;85.75
81379;BME280;70830;42.290;-71.354;2023-09-19T04:13:36;99826.91;;;17.14;85.56
81379;BME280;70830;42.290;-71.354;2023-09-19T04:16:02;99824.63;;;17.09;86.18
81379;BME280;70830;42.290;-71.354;2023-09-19T04:18:35;99824.63;;;17.09;85.72
81379;BME280;70830;42.290;-71.354;2023-09-19T04:21:04;99828.28;;;17.08;85.78
81379;BME280;70830;42.290;-71.354;2023-09-19T04:23:32;99831.78;;;17.09;85.18
81379;BME280;70830;42.290;-71.354;2023-09-19T04:25:58;99827.56;;;17.06;86.10
81379;BME280;70830;42.290;-71.354;2023-09-19T04:28:24;99816.03;;;17.06;85.57
81379;BME280;70830;42.290;-71.354;2023-09-19T04:30:50;99817.13;;;17.03;86.14
81379;BME280;70830;42.290;-71.354;2023-09-19T04:33:16;99795.97;;;17.02;85.77
81379;BME280;70830;42.290;-71.354;2023-09-19T04:35:42;99811.09;;;17.01;85.84
81379;BME280;70830;42.290;-71.354;2023-09-19T04:38:09;99805.28;;;16.96;85.56
81379;BME280;70830;42.290;-71.354;2023-09-19T04:40:35;99803.34;;;16.98;85.70
81379;BME280;70830;42.290;-71.354;2023-09-19T04:43:01;99801.53;;;16.99;86.13
81379;BME280;70830;42.290;-71.354;2023-09-19T04:45:28;99799.84;;;16.98;85.38
81379;BME280;70830;42.290;-71.354;2023-09-19T04:47:55;99818.50;;;16.98;85.83
81379;BME280;70830;42.290;-71.354;2023-09-19T04:50:21;99818.75;;;16.95;85.58
81379;BME280;70830;42.290;-71.354;2023-09-19T04:52:51;99821.53;;;16.93;86.21
81379;BME280;70830;42.290;-71.354;2023-09-19T04:55:18;99827.56;;;16.95;86.29
81379;BME280;70830;42.290;-71.354;2023-09-19T04:57:48;99834.84;;;16.93;85.85
81379;BME280;70830;42.290;-71.354;2023-09-19T05:00:19;99825.28;;;16.91;85.63
81379;BME280;70830;42.290;-71.354;2023-09-19T05:02:51;99830.59;;;16.91;85.08
81379;BME280;70830;42.290;-71.354;2023-09-19T05:05:18;99825.53;;;16.88;85.96
81379;BME280;70830;42.290;-71.354;2023-09-19T05:07:45;99825.66;;;16.86;86.17
81379;BME280;70830;42.290;-71.354;2023-09-19T05:10:12;99827.31;;;16.87;85.41
81379;BME280;70830;42.290;-71.354;2023-09-19T05:12:38;99813.19;;;16.87;85.48
81379;BME280;70830;42.290;-71.354;2023-09-19T05:15:05;99802.66;;;16.85;86.18
81379;BME280;70830;42.290;-71.354;2023-09-19T05:17:35;99802.78;;;16.83;85.54
81379;BME280;70830;42.290;-71.354;2023-09-19T05:20:02;99815.47;;;16.80;86.14
81379;BME280;70830;42.290;-71.354;2023-09-19T05:22:32;99817.41;;;16.78;85.72
81379;BME280;70830;42.290;-71.354;2023-09-19T05:25:00;99833.66;;;16.75;86.28
81379;BME280;70830;42.290;-71.354;2023-09-19T05:27:30;99833.88;;;16.72;85.86
81379;BME280;70830;42.290;-71.354;2023-09-19T05:29:56;99840.19;;;16.71;86.28
81379;BME280;70830;42.290;-71.354;2023-09-19T05:32:22;99870.44;;;16.70;85.85
81379;BME280;70830;42.290;-71.354;2023-09-19T05:34:49;99911.09;;;16.72;86.85
81379;BME280;70830;42.290;-71.354;2023-09-19T05:37:18;99937.34;;;16.76;86.77
81379;BME280;70830;42.290;-71.354;2023-09-19T05:39:44;99932.63;;;16.80;87.02
81379;BME280;70830;42.290;-71.354;2023-09-19T05:42:10;99942.09;;;16.84;86.69
81379;BME280;70830;42.290;-71.354;2023-09-19T05:44:36;99945.34;;;16.88;86.28
81379;BME280;70830;42.290;-71.354;2023-09-19T05:47:03;99952.97;;;16.92;86.33
81379;BME280;70830;42.290;-71.354;2023-09-19T05:49:29;99937.72;;;16.94;86.14
81379;BME280;70830;42.290;-71.354;2023-09-19T05:51:57;99938.06;;;17.01;86.77
81379;BME280;70830;42.290;-71.354;2023-09-19T05:54:24;99952.59;;;17.08;86.08
81379;BME280;70830;42.290;-71.354;2023-09-19T05:56:51;99962.31;;;17.09;86.14
81379;BME280;70830;42.290;-71.354;2023-09-19T05:59:19;99961.19;;;17.11;85.89
81379;BME280;70830;42.290;-71.354;2023-09-19T06:01:45;99960.22;;;17.12;85.83
81379;BME280;70830;42.290;-71.354;2023-09-19T06:04:12;99961.81;;;17.15;85.26
81379;BME280;70830;42.290;-71.354;2023-09-19T06:06:38;99968.00;;;17.15;85.30
81379;BME280;70830;42.290;-71.354;2023-09-19T06:09:08;99958.78;;;17.19;85.47
81379;BME280;70830;42.290;-71.354;2023-09-19T06:11:37;99959.38;;;17.23;85.18
81379;BME280;70830;42.290;-71.354;2023-09-19T06:14:03;99962.91;;;17.23;85.03
81379;BME280;70830;42.290;-71.354;2023-09-19T06:16:30;99980.47;;;17.26;85.72
81379;BME280;70830;42.290;-71.354;2023-09-19T06:18:58;99973.41;;;17.25;84.86
81379;BME280;70830;42.290;-71.354;2023-09-19T06:21:27;99961.09;;;17.24;86.02
81379;BME280;70830;42.290;-71.354;2023-09-19T06:23:53;99958.53;;;17.22;84.98
81379;BME280;70830;42.290;-71.354;2023-09-19T06:26:19;99957.56;;;17.23;85.48
81379;BME280;70830;42.290;-71.354;2023-09-19T06:28:45;99949.44;;;17.25;85.27
81379;BME280;70830;42.290;-71.354;2023-09-19T06:31:12;99937.22;;;17.22;85.09
81379;BME280;70830;42.290;-71.354;2023-09-19T06:33:38;99938.19;;;17.21;85.09
81379;BME280;70830;42.290;-71.354;2023-09-19T06:36:08;99941.81;;;17.20;84.89
81379;BME280;70830;42.290;-71.354;2023-09-19T06:38:34;99940.22;;;17.18;84.81
81379;BME280;70830;42.290;-71.354;2023-09-19T06:41:02;99946.69;;;17.15;85.05
81379;BME280;70830;42.290;-71.354;2023-09-19T06:43:32;99952.00;;;17.15;84.91
81379;BME280;70830;42.290;-71.354;2023-09-19T06:46:02;99944.13;;;17.14;84.82
81379;BME280;70830;42.290;-71.354;2023-09-19T06:48:29;99943.16;;;17.15;84.86
81379;BME280;70830;42.290;-71.354;2023-09-19T06:50:56;99957.56;;;17.12;84.61
81379;BME280;70830;42.290;-71.354;2023-09-19T06:53:24;99955.88;;;17.11;84.96
81379;BME280;70830;42.290;-71.354;2023-09-19T06:55:51;99950.53;;;17.11;84.89
81379;BME280;70830;42.290;-71.354;2023-09-19T06:58:17;99956.84;;;17.10;84.47
81379;BME280;70830;42.290;-71.354;2023-09-19T07:00:43;99962.19;;;17.10;84.20
81379;BME280;70830;42.290;-71.354;2023-09-19T07:03:10;99948.00;;;17.10;84.32
81379;BME280;70830;42.290;-71.354;2023-09-19T07:05:39;99947.41;;;17.06;84.42
81379;BME280;70830;42.290;-71.354;2023-09-19T07:08:06;99955.50;;;17.05;84.18
81379;BME280;70830;42.290;-71.354;2023-09-19T07:10:41;99968.22;;;17.01;84.52
81379;BME280;70830;42.290;-71.354;2023-09-19T07:13:15;99972.56;;;16.91;83.92
81379;BME280;70830;42.290;-71.354;2023-09-19T07:15:43;99975.84;;;16.83;83.62
81379;BME280;70830;42.290;-71.354;2023-09-19T07:18:16;99982.63;;;16.76;84.15
81379;BME280;70830;42.290;-71.354;2023-09-19T07:20:43;99993.84;;;16.69;84.13
81379;BME280;70830;42.290;-71.354;2023-09-19T07:23:19;99999.50;;;16.64;84.39
81379;BME280;70830;42.290;-71.354;2023-09-19T07:25:48;100006.31;;;16.57;83.82
81379;BME280;70830;42.290;-71.354;2023-09-19T07:28:14;100021.41;;;16.57;84.20
81379;BME280;70830;42.290;-71.354;2023-09-19T07:30:40;100011.13;;;16.52;nan
81379;BME280;70830;42.290;-71.354;2023-09-19T07:33:09;100020.06;;;16.51;83.86
81379;BME280;70830;42.290;-71.354;2023-09-19T07:35:38;100012.63;;;16.44;84.94
81379;BME280;70830;42.290;-71.354;2023-09-19T07:38:08;100007.16;;;16.34;84.27
81379;BME280;70830;42.290;-71.354;2023-09-19T07:40:36;100030.03;;;16.37;83.84
81379;BME280;70830;42.290;-71.354;2023-09-19T07:43:02;100036.63;;;16.31;84.48
81379;BME280;70830;42.290;-71.354;2023-09-19T07:45:30;100035.31;;;16.26;83.95
81379;BME280;70830;42.290;-71.354;2023-09-19T07:47:57;100037.44;;;16.21;84.13
81379;BME280;70830;42.290;-71.354;2023-09-19T07:50:23;100031.72;;;16.14;83.77
81379;BME280;70830;42.290;-71.354;2023-09-19T07:52:50;100047.09;;;16.10;84.26
81379;BME280;70830;42.290;-71.354;2023-09-19T07:55:19;100051.03;;;16.05;83.78
81379;BME280;70830;42.290;-71.354;2023-09-19T07:57:49;100061.16;;;16.00;84.15
81379;BME280;70830;42.290;-71.354;2023-09-19T08:00:15;100054.69;;;15.91;83.86
81379;BME280;70830;42.290;-71.354;2023-09-19T08:02:41;100072.47;;;15.91;83.81
81379;BME280;70830;42.290;-71.354;2023-09-19T08:05:10;100064.84;;;15.86;83.90
81379;BME280;70830;42.290;-71.354;2023-09-19T08:07:41;100053.88;;;15.78;83.96
81379;BME280;70830;42.290;-71.354;2023-09-19T08:10:08;100059.31;;;15.77;83.86
81379;BME280;70830;42.290;-71.354;2023-09-19T08:12:39;100054.22;;;15.74;84.10
81379;BME280;70830;42.290;-71.354;2023-09-19T08:15:20;100063.38;;;15.70;84.00
81379;BME280;70830;42.290;-71.354;2023-09-19T08:17:46;100062.84;;;15.65;84.26
81379;BME280;70830;42.290;-71.354;2023-09-19T08:20:13;100065.84;;;15.60;84.23
81379;BME280;70830;42.290;-71.354;2023-09-19T08:22:52;100068.72;;;15.57;83.73
81379;BME280;70830;42.290;-71.354;2023-09-19T08:25:20;100071.72;;;15.53;84.52
81379;BME280;70830;42.290;-71.354;2023-09-19T08:27:47;100078.09;;;15.50;84.31
81379;BME280;70830;42.290;-71.354;2023-09-19T08:30:16;100065.00;;;15.47;83.82
81379;BME280;70830;42.290;-71.354;2023-09-19T08:32:42;100074.91;;;15.45;84.23
81379;BME280;70830;42.290;-71.354;2023-09-19T08:35:09;100075.03;;;15.44;83.95
81379;BME280;70830;42.290;-71.354;2023-09-19T08:37:35;100082.22;;;15.41;84.24
81379;BME280;70830;42.290;-71.354;2023-09-19T08:40:01;100082.44;;;15.38;84.20
81379;BME280;70830;42.290;-71.354;2023-09-19T08:42:27;100085.19;;;15.37;83.57
81379;BME280;70830;42.290;-71.354;2023-09-19T08:44:54;100089.78;;;15.35;83.76
81379;BME280;70830;42.290;-71.354;2023-09-19T08:47:34;100092.50;;;15.33;83.22
81379;BME280;70830;42.290;-71.354;2023-09-19T08:50:04;100101.47;;;15.32;84.18
81379;BME280;70830;42.290;-71.354;2023-09-19T08:52:41;100092.00;;;15.28;83.77
81379;BME280;70830;42.290;-71.354;2023-09-19T08:55:12;100093.06;;;15.26;83.49
81379;BME280;70830;42.290;-71.354;2023-09-19T08:57:39;100097.63;;;15.24;83.05
81379;BME280;70830;42.290;-71.354;2023-09-19T09:00:08;100103.28;;;15.19;83.87
81379;BME280;70830;42.290;-71.354;2023-09-19T09:02:40;100105.81;;;15.21;83.49
81379;BME280;70830;42.290;-71.354;2023-09-19T09:05:08;100106.13;;;15.16;83.70
81379;BME280;70830;42.290;-71.354;2023-09-19T09:07:38;100117.41;;;15.20;83.75
81379;BME280;70830;42.290;-71.354;2023-09-19T09:10:06;100118.34;;;15.19;83.11
81379;BME280;70830;42.290;-71.354;2023-09-19T09:12:33;100116.63;;;15.18;83.45
81379;BME280;70830;42.290;-71.354;2023-09-19T09:15:02;100116.63;;;15.18;84.09
81379;BME280;70830;42.290;-71.354;2023-09-19T09:17:29;100123.03;;;15.15;83.62
81379;BME280;70830;42.290;-71.354;2023-09-19T09:19:56;100117.81;;;15.14;84.07
81379;BME280;70830;42.290;-71.354;2023-09-19T09:22:22;100132.88;;;15.13;84.03
81379;BME280;70830;42.290;-71.354;2023-09-19T09:24:52;100134.72;;;15.13;84.00
81379;BME280;70830;42.290;-71.354;2023-09-19T09:27:28;100121.75;;;15.08;84.10
81379;BME280;70830;42.290;-71.354;2023-09-19T09:29:55;100142.13;;;15.08;83.37
81379;BME280;70830;42.290;-71.354;2023-09-19T09:32:26;100133.09;;;15.10;83.81
81379;BME280;70830;42.290;-71.354;2023-09-19T09:34:59;100143.72;;;15.10;83.66
81379;BME280;70830;42.290;-71.354;2023-09-19T09:37:26;100133.19;;;15.09;84.59
81379;BME280;70830;42.290;-71.354;2023-09-19T09:40:02;100137.56;;;15.10;84.47
81379;BME280;70830;42.290;-71.354;2023-09-19T09:42:40;100147.44;;;15.08;83.93
81379;BME280;70830;42.290;-71.354;2023-09-19T09:45:23;100156.25;;;15.08;83.95
81379;BME280;70830;42.290;-71.354;2023-09-19T09:47:58;100161.56;;;15.08;83.55
81379;BME280;70830;42.290;-71.354;2023-09-19T09:50:48;100163.78;;;15.02;83.77
81379;BME280;70830;42.290;-71.354;2023-09-19T09:53:33;100174.31;;;15.03;84.43
81379;BME280;70830;42.290;-71.354;2023-09-19T09:56:09;100180.47;;;15.04;84.72
81379;BME280;70830;42.290;-71.354;2023-09-19T09:58:36;100185.13;;;15.00;84.41
81379;BME280;70830;42.290;-71.354;2023-09-19T10:01:06;100193.81;;;15.02;84.14
81379;BME280;70830;42.290;-71.354;2023-09-19T10:03:36;100205.31;;;15.03;84.27
81379;BME280;70830;42.290;-71.354;2023-09-19T10:06:10;100202.88;;;15.00;84.30
81379;BME280;70830;42.290;-71.354;2023-09-19T10:09:05;100204.88;;;14.96;83.98
81379;BME280;70830;42.290;-71.354;2023-09-19T10:11:47;100208.56;;;14.94;84.07
81379;BME280;70830;42.290;-71.354;2023-09-19T10:14:20;100208.78;;;14.91;84.36
81379;BME280;70830;42.290;-71.354;2023-09-19T10:16:49;100216.75;;;14.91;84.67
81379;BME280;70830;42.290;-71.354;2023-09-19T10:19:26;100224.81;;;14.89;83.96
81379;BME280;70830;42.290;-71.354;2023-09-19T10:21:55;100214.41;;;14.86;84.35
81379;BME280;70830;42.290;-71.354;2023-09-19T10:24:22;100230.13;;;14.89;84.23
81379;BME280;70830;42.290;-71.354;2023-09-19T10:26:53;100228.72;;;14.84;84.27
81379;BME280;70830;42.290;-71.354;2023-09-19T10:29:21;100238.28;;;14.86;84.47
81379;BME280;70830;42.290;-71.354;2023-09-19T10:31:49;100239.13;;;14.87;84.08
81379;BME280;70830;42.290;-71.354;2023-09-19T10:34:19;100248.81;;;14.88;84.57
81379;BME280;70830;42.290;-71.354;2023-09-19T10:36:48;100250.59;;;14.87;83.97
81379;BME280;70830;42.290;-71.354;2023-09-19T10:39:16;100254.13;;;14.88;84.21
81379;BME280;70830;42.290;-71.354;2023-09-19T10:41:53;100266.44;;;14.89;83.50
81379;BME280;70830;42.290;-71.354;2023-09-19T10:44:24;100259.41;;;14.88;83.53
81379;BME280;70830;42.290;-71.354;2023-09-19T10:46:52;100261.22;;;14.87;83.26
81379;BME280;70830;42.290;-71.354;2023-09-19T10:49:20;100254.97;;;14.88;nan
81379;BME280;70830;42.290;-71.354;2023-09-19T10:51:47;100256.66;;;14.89;84.14
81379;BME280;70830;42.290;-71.354;2023-09-19T10:54:18;100258.25;;;14.92;83.70
81379;BME280;70830;42.290;-71.354;2023-09-19T10:56:52;100266.78;;;14.97;83.01
81379;BME280;70830;42.290;-71.354;2023-09-19T10:59:20;100271.78;;;15.01;83.30
81379;BME280;70830;42.290;-71.354;2023-09-19T11:01:56;100268.84;;;15.06;83.57
81379;BME280;70830;42.290;-71.354;2023-09-19T11:07:06;100282.06;;;15.20;82.67
81379;BME280;70830;42.290;-71.354;2023-09-19T11:09:55;100287.28;;;15.34;83.16
81379;BME280;70830;42.290;-71.354;2023-09-19T11:14:52;100292.38;;;15.76;82.80
81379;BME280;70830;42.290;-71.354;2023-09-19T11:30:35;100308.81;;;16.69;77.76
81379;BME280;70830;42.290;-71.354;2023-09-19T11:33:22;100313.16;;;16.83;77.09
81379;BME280;70830;42.290;-71.354;2023-09-19T11:36:14;100302.25;;;16.99;76.89
81379;BME280;70830;42.290;-71.354;2023-09-19T11:43:54;100310.91;;;17.61;76.01
81379;BME280;70830;42.290;-71.354;2023-09-19T11:46:53;100315.31;;;17.73;75.39
81379;BME280;70830;42.290;-71.354;2023-09-19T11:49:40;100320.69;;;17.84;75.32
81379;BME280;70830;42.290;-71.354;2023-09-19T11:52:06;100323.38;;;17.95;74.25
81379;BME280;70830;42.290;-71.354;2023-09-19T11:54:35;100318.66;;;18.09;72.83
81379;BME280;70830;42.290;-71.354;2023-09-19T11:57:05;100322.56;;;18.27;71.44
81379;BME280;70830;42.290;-71.354;2023-09-19T11:59:32;100323.28;;;18.41;73.59
81379;BME280;70830;42.290;-71.354;2023-09-19T12:02:06;100323.44;;;18.61;70.96
81379;BME280;70830;42.290;-71.354;2023-09-19T12:04:38;100316.28;;;18.73;69.14
81379;BME280;70830;42.290;-71.354;2023-09-19T12:07:12;100319.03;;;18.71;69.68
81379;BME280;70830;42.290;-71.354;2023-09-19T12:09:42;100325.34;;;18.92;69.95
81379;BME280;70830;42.290;-71.354;2023-09-19T12:12:25;100324.78;;;19.21;71.66
81379;BME280;70830;42.290;-71.354;2023-09-19T12:15:01;100323.91;;;19.63;68.65
81379;BME280;70830;42.290;-71.354;2023-09-19T12:17:36;100318.66;;;19.93;69.02
81379;BME280;70830;42.290;-71.354;2023-09-19T12:20:02;100322.72;;;20.18;67.26
81379;BME280;70830;42.290;-71.354;2023-09-19T12:22:46;100326.56;;;20.45;66.39
81379;BME280;70830;42.290;-71.354;2023-09-19T12:25:15;100329.63;;;20.71;64.04
81379;BME280;70830;42.290;-71.354;2023-09-19T12:27:49;100340.88;;;20.95;63.01
81379;BME280;70830;42.290;-71.354;2023-09-19T12:30:19;100336.84;;;21.10;66.84
81379;BME280;70830;42.290;-71.354;2023-09-19T12:32:46;100339.97;;;21.35;66.82
81379;BME280;70830;42.290;-71.354;2023-09-19T12:35:31;100343.50;;;21.73;67.79
81379;BME280;70830;42.290;-71.354;2023-09-19T12:38:00;100346.22;;;21.93;65.01
81379;BME280;70830;42.290;-71.354;2023-09-19T12:40:26;100343.22;;;22.15;65.00
81379;BME280;70830;42.290;-71.354;2023-09-19T12:42:59;100344.16;;;22.33;59.32
81379;BME280;70830;42.290;-71.354;2023-09-19T12:45:25;100343.84;;;22.36;61.15
81379;BME280;70830;42.290;-71.354;2023-09-19T12:48:26;100351.00;;;22.54;59.67
81379;BME280;70830;42.290;-71.354;2023-09-19T12:51:09;100360.06;;;22.63;58.62
81379;BME280;70830;42.290;-71.354;2023-09-19T12:53:40;100351.34;;;22.79;55.71
81379;BME280;70830;42.290;-71.354;2023-09-19T12:56:11;100367.28;;;22.90;57.51
81379;BME280;70830;42.290;-71.354;2023-09-19T12:58:49;100363.50;;;23.10;55.63
81379;BME280;70830;42.290;-71.354;2023-09-19T13:01:16;100364.53;;;23.26;55.82
81379;BME280;70830;42.290;-71.354;2023-09-19T13:03:42;100364.66;;;23.35;52.84
81379;BME280;70830;42.290;-71.354;2023-09-19T13:06:08;100359.84;;;23.28;58.01
81379;BME280;70830;42.290;-71.354;2023-09-19T13:08:37;100364.66;;;23.35;55.58
81379;BME280;70830;42.290;-71.354;2023-09-19T13:11:12;100366.66;;;23.68;58.99
81379;BME280;70830;42.290;-71.354;2023-09-19T13:16:10;100364.97;;;24.53;51.01
81379;BME280;70830;42.290;-71.354;2023-09-19T13:19:06;100355.09;;;24.62;49.43
81379;BME280;70830;42.290;-71.354;2023-09-19T13:21:33;100361.84;;;24.92;49.91
81379;BME280;70830;42.290;-71.354;2023-09-19T13:24:20;100356.38;;;25.25;48.40
81379;BME280;70830;42.290;-71.354;2023-09-19T13:26:51;100363.91;;;25.48;48.56
81379;BME280;70830;42.290;-71.354;2023-09-19T13:29:17;100361.38;;;25.54;51.13
81379;BME280;70830;42.290;-71.354;2023-09-19T13:31:50;100369.00;;;25.83;50.44